Погода Элундана неделю

Крит, Греция

04 - 10 сентября
  • 04сентября
    Сегодня
    +23°
    +28°
    Ясно и безоблачно
    ВремяПогодаТемператураВлажностьДавлениеВетер, м/сВероятность осадков
    00:00Ясно и безоблачно+25°C63 %758 мм5.9 м/с2 %
    03:00Ясно и безоблачно+25°C66 %758 мм6.0 м/с2 %
    06:00Ясно и безоблачно+25°C73 %758 мм6.6 м/с2 %
    09:00Ясно и безоблачно+26°C67 %758 мм8.5 м/с2 %
    12:00Ясно и безоблачно+27°C55 %759 мм8.0 м/с2 %
    15:00Ясно и безоблачно+27°C55 %759 мм7.9 м/с2 %
    18:00Ясно и безоблачно+26°C63 %759 мм8.3 м/с2 %
    21:00Ясно и безоблачно+24°C69 %760 мм7.6 м/с2 %
  • 05сентября
    Суббота
    +23°
    +28°
    Ясно и безоблачно
    ВремяПогодаТемператураВлажностьДавлениеВетер, м/сВероятность осадков
    00:00Ясно и безоблачно+24°C70 %760 мм7.9 м/с2 %
    03:00Ясно и безоблачно+24°C73 %759 мм7.9 м/с2 %
    06:00Ясно и безоблачно+24°C71 %760 мм8.1 м/с2 %
    09:00Ясно и безоблачно+26°C64 %760 мм8.5 м/с2 %
    12:00Ясно и безоблачно+27°C60 %761 мм8.5 м/с2 %
    15:00Ясно и безоблачно+27°C62 %761 мм8.9 м/с2 %
    18:00Ясно и безоблачно+27°C63 %761 мм8.0 м/с2 %
    21:00Ясно и безоблачно+24°C66 %762 мм6.5 м/с2 %
  • 06сентября
    Воскресенье
    +24°
    +29°
    Ясно и безоблачно
    ВремяПогодаТемператураВлажностьДавлениеВетер, м/сВероятность осадков
    00:00Ясно и безоблачно+24°C61 %762 мм5.1 м/с2 %
    03:00Ясно и безоблачно+25°C52 %762 мм4.0 м/с2 %
    06:00Ясно и безоблачно+25°C50 %761 мм3.9 м/с2 %
    09:00Ясно и безоблачно+27°C43 %762 мм4.9 м/с2 %
    12:00Ясно и безоблачно+28°C44 %763 мм7.0 м/с2 %
    15:00Ясно и безоблачно+29°C47 %762 мм7.0 м/с2 %
    18:00Ясно и безоблачно+28°C51 %762 мм6.3 м/с2 %
    21:00Ясно и безоблачно+25°C55 %762 мм4.6 м/с2 %
  • 07сентября
    Понедельник
    +24°
    +31°
    Ясно и безоблачно
    ВремяПогодаТемператураВлажностьДавлениеВетер, м/сВероятность осадков
    00:00Ясно и безоблачно+25°C51 %762 мм5.4 м/с2 %
    03:00Ясно и безоблачно+26°C48 %762 мм6.2 м/с2 %
    06:00Ясно и безоблачно+27°C50 %761 мм5.9 м/с2 %
    09:00Ясно и безоблачно+29°C50 %762 мм7.1 м/с2 %
    12:00Ясно и безоблачно+30°C51 %763 мм7.6 м/с2 %
    15:00Ясно и безоблачно+31°C49 %762 мм7.6 м/с2 %
    18:00Ясно и безоблачно+30°C47 %761 мм7.2 м/с2 %
    21:00Ясно и безоблачно+27°C55 %762 мм6.8 м/с2 %
  • 08сентября
    Вторник
    +22°
    +28°
    Ясно и безоблачно
    ВремяПогодаТемператураВлажностьДавлениеВетер, м/сВероятность осадков
    00:00Ясно и безоблачно+25°C65 %762 мм5.9 м/с2 %
    03:00Ясно и безоблачно+25°C71 %761 мм6.2 м/с2 %
    06:00Ясно и безоблачно+24°C76 %761 мм7.3 м/с2 %
    09:00Ясно и безоблачно+26°C66 %761 мм8.3 м/с2 %
    12:00Ясно и безоблачно+27°C57 %761 мм8.3 м/с2 %
    15:00Ясно и безоблачно+27°C53 %760 мм8.4 м/с2 %
    18:00Ясно и безоблачно+26°C57 %759 мм7.8 м/с2 %
    21:00Ясно и безоблачно+23°C61 %759 мм6.0 м/с2 %
  • 09сентября
    Среда
    +20°
    +27°
    Ясно и безоблачно
    ВремяПогодаТемператураВлажностьДавлениеВетер, м/сВероятность осадков
    03:00Ясно и безоблачно+23°C65 %758 мм6.0 м/с2 %
    09:00Ясно и безоблачно+25°C63 %758 мм7.6 м/с2 %
    15:00Ясно и безоблачно+27°C64 %758 мм8.5 м/с2 %
    21:00Ясно и безоблачно+22°C73 %758 мм5.1 м/с2 %
  • 10сентября
    Четверг
    +21°
    +29°
    Ясно и безоблачно
    ВремяПогодаТемператураВлажностьДавлениеВетер, м/сВероятность осадков
    03:00Ясно и безоблачно+20°C63 %758 мм4.2 м/с2 %
    09:00Ясно и безоблачно+24°C59 %760 мм3.1 м/с2 %
    15:00Ясно и безоблачно+28°C49 %760 мм3.5 м/с2 %
    21:00Ясно и безоблачно+24°C69 %761 мм2.1 м/с2 %
Мы используем cookies
Соглашаюсь